createdAt,value
2018-03-28T00:01:01.538Z,12.13
2018-03-28T00:03:28.102Z,12.33
2018-03-28T00:05:54.683Z,12.30
2018-03-28T00:08:21.274Z,11.80
2018-03-28T00:10:47.836Z,11.30
2018-03-28T00:13:14.413Z,11.67
2018-03-28T00:15:41.004Z,13.43
2018-03-28T00:18:07.603Z,13.43
2018-03-28T00:20:34.197Z,11.07
2018-03-28T00:23:00.775Z,12.57
2018-03-28T00:25:27.342Z,12.47
2018-03-28T00:27:53.934Z,11.93
2018-03-28T00:30:20.509Z,12.27
2018-03-28T00:32:47.074Z,11.07
2018-03-28T00:35:13.652Z,12.13
2018-03-28T00:37:40.231Z,11.90
2018-03-28T00:40:06.806Z,12.90
2018-03-28T00:42:33.387Z,14.17
2018-03-28T00:44:59.959Z,12.63
2018-03-28T00:47:26.535Z,13.50
2018-03-28T00:49:53.114Z,13.90
2018-03-28T00:52:19.703Z,14.30
2018-03-28T00:54:46.278Z,13.53
2018-03-28T00:57:12.858Z,14.10
2018-03-28T00:59:39.434Z,13.90
2018-03-28T01:02:06.006Z,13.40
2018-03-28T01:04:32.587Z,13.10
2018-03-28T01:06:59.166Z,13.63
2018-03-28T01:09:25.746Z,15.10
2018-03-28T01:11:52.327Z,12.90
2018-03-28T01:14:18.903Z,13.50
2018-03-28T01:16:45.496Z,13.47
2018-03-28T01:19:12.162Z,12.87
2018-03-28T01:21:38.738Z,12.40
2018-03-28T01:24:05.327Z,13.00
2018-03-28T01:26:31.904Z,12.77
2018-03-28T01:28:58.490Z,11.83
2018-03-28T01:31:25.079Z,11.70
2018-03-28T01:33:51.643Z,11.47
2018-03-28T01:38:58.855Z,12.10
2018-03-28T01:41:25.469Z,11.47
2018-03-28T01:43:52.027Z,11.03
2018-03-28T01:46:18.684Z,10.60
2018-03-28T01:48:45.187Z,10.70
2018-03-28T01:51:11.772Z,10.03
2018-03-28T01:53:38.344Z,10.70
2018-03-28T01:56:04.919Z,10.70
2018-03-28T01:58:31.567Z,10.60
2018-03-28T02:00:58.158Z,11.30
2018-03-28T02:03:24.748Z,11.23
2018-03-28T02:05:51.326Z,10.30
2018-03-28T02:08:17.906Z,10.63
2018-03-28T02:10:44.487Z,9.90
2018-03-28T02:13:11.054Z,10.60
2018-03-28T02:15:37.628Z,10.30
2018-03-28T02:18:04.206Z,10.70
2018-03-28T02:20:30.778Z,10.67
2018-03-28T02:22:57.366Z,11.93
2018-03-28T02:25:23.943Z,11.60
2018-03-28T02:27:50.527Z,10.30
2018-03-28T02:30:17.109Z,10.03
2018-03-28T02:32:43.690Z,11.00
2018-03-28T02:35:10.271Z,11.57
2018-03-28T02:37:36.852Z,11.40
2018-03-28T02:40:03.427Z,12.67
2018-03-28T02:42:30.004Z,11.10
2018-03-28T02:44:56.581Z,12.77
2018-03-28T02:47:23.162Z,12.20
2018-03-28T02:49:49.766Z,12.60
2018-03-28T02:52:16.360Z,11.67
2018-03-28T02:54:42.981Z,12.00
2018-03-28T02:57:09.558Z,12.87
2018-03-28T02:59:36.127Z,11.57
2018-03-28T03:02:02.746Z,11.23
2018-03-28T03:04:29.307Z,12.20
2018-03-28T03:06:55.884Z,11.77
2018-03-28T03:09:22.494Z,12.10
2018-03-28T03:11:49.066Z,12.63
2018-03-28T03:14:15.663Z,11.50
2018-03-28T03:16:42.238Z,11.30
2018-03-28T03:19:08.834Z,11.40
2018-03-28T03:21:35.423Z,10.77
2018-03-28T03:24:01.994Z,10.30
2018-03-28T03:26:28.563Z,9.70
2018-03-28T03:28:55.172Z,10.10
2018-03-28T03:31:21.743Z,9.50
2018-03-28T03:33:48.317Z,10.23
2018-03-28T03:36:14.885Z,9.63
2018-03-28T03:38:41.460Z,10.50
2018-03-28T03:41:08.042Z,10.33
2018-03-28T03:43:34.623Z,10.70
2018-03-28T03:46:01.233Z,9.93
2018-03-28T03:48:27.794Z,10.40
2018-03-28T03:50:54.370Z,9.93
2018-03-28T03:53:20.943Z,10.23
2018-03-28T03:55:47.519Z,9.60
2018-03-28T03:58:14.146Z,10.57
2018-03-28T04:00:40.760Z,11.00
2018-03-28T04:03:07.346Z,10.17
2018-03-28T04:05:34.020Z,10.50
2018-03-28T04:08:00.570Z,10.40
2018-03-28T04:10:27.154Z,10.23
2018-03-28T04:12:53.741Z,10.20
2018-03-28T04:15:20.312Z,10.60
2018-03-28T04:17:46.899Z,9.70
2018-03-28T04:20:13.468Z,10.47
2018-03-28T04:22:40.106Z,10.10
2018-03-28T04:25:06.668Z,10.07
2018-03-28T04:27:33.246Z,10.10
2018-03-28T04:29:59.815Z,9.83
2018-03-28T04:32:26.390Z,9.50
2018-03-28T04:34:52.973Z,9.80
2018-03-28T04:37:19.540Z,9.73
2018-03-28T04:39:46.112Z,9.90
2018-03-28T04:42:12.726Z,9.80
2018-03-28T04:44:39.298Z,9.90
2018-03-28T04:47:05.863Z,9.67
2018-03-28T04:49:32.442Z,10.80
2018-03-28T04:51:59.014Z,10.30
2018-03-28T04:54:25.608Z,10.23
2018-03-28T04:56:52.178Z,10.47
2018-03-28T04:59:18.759Z,10.20
2018-03-28T05:01:45.367Z,10.20
2018-03-28T05:04:11.966Z,10.10
2018-03-28T05:06:38.527Z,10.07
2018-03-28T05:09:05.975Z,9.23
2018-03-28T05:11:32.560Z,9.10
2018-03-28T05:13:59.144Z,10.40
2018-03-28T05:16:25.716Z,9.40
2018-03-28T05:18:52.305Z,10.03
2018-03-28T05:21:18.879Z,10.20
2018-03-28T05:23:45.449Z,12.13
2018-03-28T05:26:12.036Z,11.20
2018-03-28T05:28:38.604Z,10.63
2018-03-28T05:31:05.211Z,11.20
2018-03-28T05:33:31.758Z,11.80
2018-03-28T05:35:58.370Z,10.87
2018-03-28T05:38:24.928Z,10.90
2018-03-28T05:40:51.511Z,10.80
2018-03-28T05:43:18.286Z,12.67
2018-03-28T05:45:44.904Z,11.50
2018-03-28T05:48:12.255Z,12.27
2018-03-28T05:50:38.842Z,12.07
2018-03-28T05:53:05.414Z,12.60
2018-03-28T05:55:31.994Z,11.80
2018-03-28T05:57:58.572Z,13.93
2018-03-28T06:00:25.156Z,13.47
2018-03-28T06:02:51.738Z,13.47
2018-03-28T06:05:18.311Z,13.00
2018-03-28T06:07:44.891Z,14.50
2018-03-28T06:10:11.474Z,14.77
2018-03-28T06:12:38.074Z,14.83
2018-03-28T06:15:04.635Z,15.33
2018-03-28T06:17:31.210Z,15.40
2018-03-28T06:19:57.782Z,16.47
2018-03-28T06:22:24.357Z,16.90
2018-03-28T06:24:50.931Z,15.97
2018-03-28T06:27:17.510Z,16.20
2018-03-28T06:29:44.094Z,16.50
2018-03-28T06:32:10.666Z,17.13
2018-03-28T06:34:37.234Z,15.90
2018-03-28T06:37:04.088Z,19.27
2018-03-28T06:39:30.664Z,18.27
2018-03-28T06:41:57.240Z,18.90
2018-03-28T06:44:23.814Z,18.23
2018-03-28T06:46:50.478Z,18.70
2018-03-28T06:49:17.034Z,18.53
2018-03-28T06:51:43.602Z,20.57
2018-03-28T06:54:10.181Z,18.87
2018-03-28T06:56:36.754Z,20.43
2018-03-28T06:59:03.344Z,21.17
2018-03-28T07:01:29.918Z,20.47
2018-03-28T07:03:56.495Z,20.00
2018-03-28T07:06:23.072Z,20.70
2018-03-28T07:08:49.657Z,21.47
2018-03-28T07:11:16.231Z,20.67
2018-03-28T07:13:42.813Z,22.10
2018-03-28T07:16:09.381Z,22.50
2018-03-28T07:18:36.327Z,21.50
2018-03-28T07:21:02.895Z,21.93
2018-03-28T07:23:29.486Z,24.27
2018-03-28T07:25:56.047Z,23.20
2018-03-28T07:28:22.619Z,22.83
2018-03-28T07:30:49.318Z,23.13
2018-03-28T07:33:15.974Z,22.97
2018-03-28T07:35:42.563Z,22.80
2018-03-28T07:38:09.130Z,22.07
2018-03-28T07:40:36.172Z,22.50
2018-03-28T07:43:03.360Z,21.33
2018-03-28T07:45:29.928Z,22.20
2018-03-28T07:47:56.511Z,23.30
2018-03-28T07:50:23.087Z,24.17
2018-03-28T07:52:49.727Z,23.80
2018-03-28T07:55:16.298Z,22.20
2018-03-28T07:57:42.922Z,23.77
2018-03-28T08:00:09.516Z,24.40
2018-03-28T08:02:36.088Z,25.10
2018-03-28T08:05:02.671Z,23.33
2018-03-28T08:07:29.246Z,23.37
2018-03-28T08:09:55.818Z,24.47
2018-03-28T08:12:22.446Z,23.73
2018-03-28T08:17:31.603Z,25.07
2018-03-28T08:19:58.170Z,25.00
2018-03-28T08:22:24.750Z,24.33
2018-03-28T08:24:51.327Z,23.70
2018-03-28T08:27:17.911Z,25.23
2018-03-28T08:29:44.484Z,24.43
2018-03-28T08:32:11.072Z,22.73
2018-03-28T08:34:37.656Z,24.80
2018-03-28T08:37:04.223Z,24.70
2018-03-28T08:39:30.802Z,23.27
2018-03-28T08:41:57.383Z,22.97
2018-03-28T08:44:23.959Z,23.20
2018-03-28T08:46:50.546Z,23.33
2018-03-28T08:49:17.126Z,22.10
2018-03-28T08:51:43.706Z,22.50
2018-03-28T08:54:10.287Z,21.73
2018-03-28T08:56:41.127Z,23.37
2018-03-28T08:59:07.703Z,23.13
2018-03-28T09:01:34.280Z,24.70
2018-03-28T09:04:00.858Z,23.83
2018-03-28T09:06:27.426Z,22.10
2018-03-28T09:08:54.010Z,22.30
2018-03-28T09:11:20.588Z,19.70
2018-03-28T09:13:47.154Z,18.93
2018-03-28T09:16:13.732Z,19.93
2018-03-28T09:18:40.308Z,21.00
2018-03-28T09:21:06.883Z,21.80
2018-03-28T09:23:33.452Z,21.67
2018-03-28T09:26:00.104Z,21.40
2018-03-28T09:28:26.615Z,21.57
2018-03-28T09:30:53.198Z,20.60
2018-03-28T09:33:19.770Z,20.70
2018-03-28T09:35:46.350Z,18.73
2018-03-28T09:38:12.923Z,18.97
2018-03-28T09:40:39.503Z,18.97
2018-03-28T09:43:06.075Z,17.50
2018-03-28T09:45:32.673Z,17.00
2018-03-28T09:47:59.236Z,17.93
2018-03-28T09:50:25.807Z,17.80
2018-03-28T09:52:52.387Z,16.73
2018-03-28T09:55:18.965Z,18.70
2018-03-28T09:57:45.538Z,19.40
2018-03-28T10:00:12.110Z,18.53
2018-03-28T10:02:43.470Z,18.60
2018-03-28T10:05:10.965Z,18.60
2018-03-28T10:07:37.554Z,18.50
2018-03-28T10:10:04.139Z,18.90
2018-03-28T10:12:30.942Z,19.33
2018-03-28T10:14:57.880Z,18.60
2018-03-28T10:17:24.454Z,19.67
2018-03-28T10:19:52.130Z,19.27
2018-03-28T10:22:21.176Z,20.63
2018-03-28T10:24:47.754Z,21.17
2018-03-28T10:27:14.338Z,20.67
2018-03-28T10:29:41.049Z,17.47
2018-03-28T10:32:07.641Z,18.23
2018-03-28T10:34:34.218Z,16.20
2018-03-28T10:37:00.786Z,16.30
2018-03-28T10:39:27.366Z,15.53
2018-03-28T10:41:53.978Z,15.67
2018-03-28T10:44:21.255Z,14.77
2018-03-28T10:46:47.808Z,14.20
2018-03-28T10:49:15.180Z,15.07
2018-03-28T10:51:42.921Z,14.77
2018-03-28T10:54:09.573Z,14.43
2018-03-28T10:56:36.223Z,12.20
2018-03-28T10:59:03.292Z,11.60
2018-03-28T11:01:30.122Z,11.43
2018-03-28T11:03:56.679Z,18.50
2018-03-28T11:06:24.283Z,11.73
2018-03-28T11:08:51.293Z,13.20
2018-03-28T11:11:17.847Z,11.60
2018-03-28T11:13:44.424Z,10.10
2018-03-28T11:16:12.641Z,9.30
2018-03-28T11:18:39.333Z,10.17
2018-03-28T11:21:05.954Z,7.90
2018-03-28T11:23:34.558Z,7.70
2018-03-28T11:26:03.624Z,7.30
2018-03-28T11:28:30.917Z,7.27
2018-03-28T11:30:57.612Z,6.80
2018-03-28T11:33:24.172Z,6.67
2018-03-28T11:35:50.814Z,6.30
2018-03-28T11:38:17.391Z,6.53
2018-03-28T11:40:43.982Z,7.03
2018-03-28T11:43:10.535Z,6.27
2018-03-28T11:45:37.104Z,5.70
2018-03-28T11:48:03.674Z,6.60
2018-03-28T11:50:30.246Z,6.57
2018-03-28T11:52:56.851Z,6.53
2018-03-28T11:55:23.383Z,7.77
2018-03-28T11:57:50.008Z,6.80
2018-03-28T12:00:21.494Z,8.07
2018-03-28T12:02:48.778Z,6.50
2018-03-28T12:05:15.556Z,7.00
2018-03-28T12:07:42.170Z,7.13
2018-03-28T12:10:08.939Z,7.80
2018-03-28T12:12:36.523Z,7.40
2018-03-28T12:15:03.067Z,8.00
2018-03-28T12:17:30.510Z,7.57
2018-03-28T12:19:57.147Z,7.30
2018-03-28T12:22:23.751Z,8.00
2018-03-28T12:24:50.939Z,7.53
2018-03-28T12:27:17.503Z,8.00
2018-03-28T12:29:44.087Z,7.10
2018-03-28T12:32:10.651Z,7.20
2018-03-28T12:34:37.218Z,6.90
2018-03-28T12:37:03.795Z,7.00
2018-03-28T12:39:30.365Z,6.13
2018-03-28T12:41:56.934Z,6.10
2018-03-28T12:44:23.500Z,6.80
2018-03-28T12:46:50.068Z,6.47
2018-03-28T12:49:16.638Z,6.90
2018-03-28T12:51:43.209Z,7.23
2018-03-28T12:54:09.858Z,7.20
2018-03-28T12:56:36.379Z,7.37
2018-03-28T12:59:02.935Z,6.90
2018-03-28T13:01:29.503Z,6.90
2018-03-28T13:03:56.074Z,6.33
2018-03-28T13:06:22.646Z,6.27
2018-03-28T13:08:49.214Z,6.10
2018-03-28T13:11:15.791Z,7.20
2018-03-28T13:13:42.380Z,7.30
2018-03-28T13:16:09.162Z,6.60
2018-03-28T13:18:35.730Z,6.90
2018-03-28T13:21:02.308Z,7.37
2018-03-28T13:23:31.620Z,7.23
2018-03-28T13:25:58.245Z,7.30
2018-03-28T13:28:24.950Z,7.40
2018-03-28T13:30:51.743Z,7.43
2018-03-28T13:33:18.408Z,8.00
2018-03-28T13:35:45.060Z,7.60
2018-03-28T13:38:11.615Z,8.97
2018-03-28T13:40:38.366Z,7.80
2018-03-28T13:43:05.111Z,7.93
2018-03-28T13:45:31.731Z,7.30
2018-03-28T13:47:59.047Z,7.50
2018-03-28T13:50:25.614Z,6.93
2018-03-28T13:52:52.279Z,7.93
2018-03-28T13:55:19.636Z,8.17
2018-03-28T13:57:46.210Z,7.27
2018-03-28T14:00:12.832Z,8.40
2018-03-28T14:02:40.013Z,8.43
2018-03-28T14:05:06.572Z,8.60
2018-03-28T14:07:33.227Z,8.43
2018-03-28T14:10:00.528Z,9.00
2018-03-28T14:12:27.098Z,8.43
2018-03-28T14:14:54.014Z,9.33
2018-03-28T14:17:21.484Z,9.93
2018-03-28T14:19:49.691Z,9.63
2018-03-28T14:22:16.915Z,9.00
2018-03-28T14:24:43.478Z,10.20
2018-03-28T14:27:10.042Z,9.20
2018-03-28T14:29:36.623Z,10.37
2018-03-28T14:32:03.187Z,9.63
2018-03-28T14:34:29.798Z,10.10
2018-03-28T14:36:57.141Z,10.00
2018-03-28T14:39:23.744Z,9.20
2018-03-28T14:41:50.404Z,10.70
2018-03-28T14:44:17.074Z,10.30
2018-03-28T14:46:43.644Z,10.17
2018-03-28T14:49:11.083Z,9.20
2018-03-28T14:51:38.683Z,9.00
2018-03-28T14:54:06.254Z,9.77
2018-03-28T14:56:32.802Z,9.47
2018-03-28T14:58:59.442Z,10.10
2018-03-28T15:01:26.810Z,9.10
2018-03-28T15:03:53.958Z,8.97
2018-03-28T15:06:20.552Z,9.20
2018-03-28T15:08:47.226Z,9.63
2018-03-28T15:11:14.650Z,9.50
2018-03-28T15:13:41.259Z,8.30
2018-03-28T15:16:07.841Z,9.40
2018-03-28T15:18:34.424Z,9.50
2018-03-28T15:21:00.981Z,8.80
2018-03-28T15:23:27.562Z,8.40
2018-03-28T15:25:54.166Z,8.07
2018-03-28T15:28:20.847Z,9.00
2018-03-28T15:30:47.399Z,9.40
2018-03-28T15:33:13.974Z,9.50
2018-03-28T15:35:41.599Z,8.93
2018-03-28T15:38:09.014Z,9.47
2018-03-28T15:40:35.564Z,7.90
2018-03-28T15:43:02.138Z,8.50
2018-03-28T15:45:28.711Z,8.67
2018-03-28T15:47:55.279Z,8.97
2018-03-28T15:50:21.842Z,8.77
2018-03-28T15:52:48.418Z,8.70
2018-03-28T15:55:14.996Z,8.90
2018-03-28T15:57:41.571Z,8.03
2018-03-28T16:00:08.137Z,8.33
2018-03-28T16:02:34.771Z,8.90
2018-03-28T16:05:01.348Z,8.80
2018-03-28T16:07:27.938Z,8.37
2018-03-28T16:09:54.510Z,8.47
2018-03-28T16:12:21.826Z,8.00
2018-03-28T16:14:48.390Z,9.20
2018-03-28T16:17:14.990Z,8.77
2018-03-28T16:19:42.306Z,8.87
2018-03-28T16:22:08.941Z,8.43
2018-03-28T16:24:36.246Z,7.77
2018-03-28T16:27:03.233Z,7.83
2018-03-28T16:29:29.778Z,8.27
2018-03-28T16:31:57.310Z,7.43
2018-03-28T16:34:26.209Z,8.10
2018-03-28T16:36:53.710Z,7.20
2018-03-28T16:39:20.287Z,7.30
2018-03-28T16:41:46.918Z,7.33
2018-03-28T16:44:13.558Z,8.70
2018-03-28T16:46:40.142Z,7.90
2018-03-28T16:49:06.717Z,11.40
2018-03-28T16:51:33.323Z,9.77
2018-03-28T16:53:59.891Z,9.40
2018-03-28T16:56:26.466Z,10.27
2018-03-28T16:58:53.067Z,22.23
2018-03-28T17:01:19.713Z,12.50
2018-03-28T17:03:46.284Z,7.60
2018-03-28T17:06:12.856Z,7.90
2018-03-28T17:08:39.424Z,7.57
2018-03-28T17:11:06.012Z,11.63
2018-03-28T17:13:32.582Z,30.33
2018-03-28T17:15:59.172Z,17.10
2018-03-28T17:18:28.591Z,18.77
2018-03-28T17:20:55.311Z,7.10
2018-03-28T17:23:21.981Z,8.40
2018-03-28T17:25:48.858Z,11.70
2018-03-28T17:28:15.434Z,11.70
2018-03-28T17:30:42.011Z,10.50
2018-03-28T17:33:08.629Z,7.30
2018-03-28T17:35:35.776Z,6.87
2018-03-28T17:38:02.425Z,6.90
2018-03-28T17:40:29.894Z,6.67
2018-03-28T17:42:58.127Z,7.00
2018-03-28T17:45:24.736Z,6.50
2018-03-28T17:47:51.412Z,6.53
2018-03-28T17:50:18.678Z,8.50
2018-03-28T17:52:46.042Z,8.90
2018-03-28T17:55:14.592Z,6.63
2018-03-28T17:57:42.523Z,6.63
2018-03-28T18:00:09.809Z,4.03
2018-03-28T18:02:36.374Z,4.30
2018-03-28T18:05:03.486Z,4.70
2018-03-28T18:07:30.786Z,4.37
2018-03-28T18:09:58.010Z,4.27
2018-03-28T18:12:24.570Z,4.40
2018-03-28T18:14:51.298Z,4.80
2018-03-28T18:17:18.034Z,4.27
2018-03-28T18:19:45.385Z,3.23
2018-03-28T18:22:11.951Z,3.93
2018-03-28T18:24:39.990Z,4.27
2018-03-28T18:27:07.650Z,4.13
2018-03-28T18:29:34.207Z,3.50
2018-03-28T18:32:01.515Z,3.60
2018-03-28T18:34:29.019Z,3.67
2018-03-28T18:36:56.499Z,4.50
2018-03-28T18:39:23.063Z,3.60
2018-03-28T18:41:51.452Z,4.47
2018-03-28T18:44:18.503Z,4.30
2018-03-28T18:46:46.910Z,4.40
2018-03-28T18:49:16.291Z,3.90
2018-03-28T18:51:43.570Z,4.20
2018-03-28T18:54:10.228Z,4.87
2018-03-28T18:56:36.817Z,4.50
2018-03-28T18:59:03.406Z,5.20
2018-03-28T19:01:29.987Z,5.70
2018-03-28T19:03:59.288Z,6.53
2018-03-28T19:06:25.850Z,6.83
2018-03-28T19:08:52.424Z,5.87
2018-03-28T19:11:19.019Z,5.30
2018-03-28T19:13:45.570Z,6.00
2018-03-28T19:16:12.147Z,6.40
2018-03-28T19:18:38.718Z,6.10
2018-03-28T19:21:05.288Z,6.07
2018-03-28T19:23:31.850Z,5.70
2018-03-28T19:25:58.427Z,5.20
2018-03-28T19:28:24.995Z,4.57
2018-03-28T19:30:51.613Z,5.47
2018-03-28T19:33:18.152Z,4.83
2018-03-28T19:35:44.717Z,4.80
2018-03-28T19:38:11.288Z,5.50
2018-03-28T19:40:38.466Z,4.80
2018-03-28T19:43:05.042Z,5.80
2018-03-28T19:45:31.723Z,6.47
2018-03-28T19:47:59.304Z,6.03
2018-03-28T19:50:25.862Z,6.17
2018-03-28T19:52:52.430Z,6.27
2018-03-28T19:55:19.007Z,6.20
2018-03-28T19:57:45.661Z,6.20
2018-03-28T20:00:12.214Z,7.53
2018-03-28T20:02:39.846Z,7.23
2018-03-28T20:05:07.802Z,7.40
2018-03-28T20:07:35.538Z,6.63
2018-03-28T20:10:02.119Z,7.47
2018-03-28T20:12:29.498Z,7.23
2018-03-28T20:14:57.219Z,6.13
2018-03-28T20:17:23.792Z,8.73
2018-03-28T20:19:50.392Z,8.30
2018-03-28T20:22:16.946Z,7.67
2018-03-28T20:24:43.541Z,7.60
2018-03-28T20:27:10.142Z,7.77
2018-03-28T20:29:36.740Z,8.27
2018-03-28T20:32:03.315Z,8.20
2018-03-28T20:34:29.895Z,8.87
2018-03-28T20:36:56.467Z,8.77
2018-03-28T20:39:23.042Z,9.27
2018-03-28T20:41:49.617Z,8.10
2018-03-28T20:44:16.185Z,8.57
2018-03-28T20:46:42.800Z,9.53
2018-03-28T20:49:09.368Z,8.70
2018-03-28T20:51:35.963Z,9.37
2018-03-28T20:54:02.518Z,8.50
2018-03-28T20:56:29.088Z,8.33
2018-03-28T20:58:55.658Z,8.23
2018-03-28T21:01:22.237Z,8.83
2018-03-28T21:03:48.805Z,9.50
2018-03-28T21:06:15.383Z,9.23
2018-03-28T21:08:41.954Z,10.30
2018-03-28T21:11:08.536Z,10.33
2018-03-28T21:13:35.111Z,9.73
2018-03-28T21:16:01.686Z,10.40
2018-03-28T21:18:28.265Z,10.80
2018-03-28T21:20:55.206Z,11.20
2018-03-28T21:23:21.782Z,10.23
2018-03-28T21:25:48.355Z,10.10
2018-03-28T21:28:14.932Z,10.00
2018-03-28T21:30:41.501Z,9.07
2018-03-28T21:33:08.078Z,8.27
2018-03-28T21:35:35.567Z,8.10
2018-03-28T21:38:02.143Z,8.30
2018-03-28T21:40:28.754Z,9.00
2018-03-28T21:42:55.355Z,8.57
2018-03-28T21:45:21.938Z,10.27
2018-03-28T21:47:48.574Z,9.60
2018-03-28T21:50:15.099Z,9.90
2018-03-28T21:52:41.686Z,11.60
2018-03-28T21:55:08.250Z,11.67
2018-03-28T21:57:35.127Z,12.50
2018-03-28T22:00:01.700Z,13.00
2018-03-28T22:02:28.274Z,12.77
2018-03-28T22:04:54.864Z,12.13
2018-03-28T22:07:21.444Z,12.47
2018-03-28T22:09:48.022Z,12.20
2018-03-28T22:12:14.589Z,12.00
2018-03-28T22:14:41.166Z,13.10
2018-03-28T22:17:07.775Z,12.20
2018-03-28T22:19:34.359Z,11.67
2018-03-28T22:22:00.927Z,11.17
2018-03-28T22:24:27.518Z,10.30
2018-03-28T22:26:54.086Z,10.50
2018-03-28T22:29:20.662Z,10.93
2018-03-28T22:31:47.231Z,9.50
2018-03-28T22:34:13.811Z,9.30
2018-03-28T22:36:40.378Z,8.33
2018-03-28T22:39:07.000Z,7.63
2018-03-28T22:41:33.567Z,8.90
2018-03-28T22:44:00.136Z,9.63
2018-03-28T22:46:26.715Z,10.17
2018-03-28T22:48:53.287Z,10.03
2018-03-28T22:51:19.866Z,10.73
2018-03-28T22:53:46.440Z,10.40
2018-03-28T22:56:13.027Z,10.40
2018-03-28T22:58:39.600Z,10.27
2018-03-28T23:01:06.175Z,10.57
2018-03-28T23:03:32.756Z,9.43
2018-03-28T23:05:59.328Z,9.10
2018-03-28T23:08:25.902Z,8.37
2018-03-28T23:10:52.518Z,7.73
2018-03-28T23:13:19.055Z,7.20
2018-03-28T23:15:45.663Z,7.03
2018-03-28T23:18:12.211Z,6.33
2018-03-28T23:20:38.779Z,6.40
2018-03-28T23:23:05.350Z,6.00
2018-03-28T23:25:31.914Z,5.70
2018-03-28T23:27:58.522Z,6.03
2018-03-28T23:30:25.088Z,5.67
2018-03-28T23:32:51.659Z,6.20
2018-03-28T23:35:18.235Z,5.60
2018-03-28T23:37:44.787Z,5.30
2018-03-28T23:40:11.355Z,4.87
2018-03-28T23:42:37.921Z,4.90
2018-03-28T23:45:04.488Z,5.30
2018-03-28T23:47:31.061Z,5.00
2018-03-28T23:49:57.627Z,5.27
2018-03-28T23:52:24.203Z,5.27
2018-03-28T23:54:50.762Z,5.73
2018-03-28T23:57:17.329Z,5.40
2018-03-28T23:59:43.898Z,5.80
